sensor_id;sensor_type;location;lat;lon;timestamp;temperature;humidity
71039;SHT30;58692;43.212;27.908;2023-05-17T00:01:43;16.13;78.52
71039;SHT30;58692;43.212;27.908;2023-05-17T00:04:09;16.21;78.32
71039;SHT30;58692;43.212;27.908;2023-05-17T00:06:34;16.14;78.63
71039;SHT30;58692;43.212;27.908;2023-05-17T00:09:00;16.10;78.78
71039;SHT30;58692;43.212;27.908;2023-05-17T00:11:25;16.13;78.72
71039;SHT30;58692;43.212;27.908;2023-05-17T00:13:51;16.17;78.52
71039;SHT30;58692;43.212;27.908;2023-05-17T00:16:16;16.10;78.61
71039;SHT30;58692;43.212;27.908;2023-05-17T00:18:42;16.13;78.75
71039;SHT30;58692;43.212;27.908;2023-05-17T00:21:07;16.13;78.75
71039;SHT30;58692;43.212;27.908;2023-05-17T00:23:33;16.20;78.59
71039;SHT30;58692;43.212;27.908;2023-05-17T00:25:58;16.18;78.68
71039;SHT30;58692;43.212;27.908;2023-05-17T00:28:24;16.17;78.81
71039;SHT30;58692;43.212;27.908;2023-05-17T00:30:49;16.11;78.98
71039;SHT30;58692;43.212;27.908;2023-05-17T00:33:15;16.03;79.34
71039;SHT30;58692;43.212;27.908;2023-05-17T00:35:40;16.07;79.28
71039;SHT30;58692;43.212;27.908;2023-05-17T00:38:06;16.10;79.15
71039;SHT30;58692;43.212;27.908;2023-05-17T00:40:31;16.08;79.23
71039;SHT30;58692;43.212;27.908;2023-05-17T00:42:57;16.04;79.28
71039;SHT30;58692;43.212;27.908;2023-05-17T00:45:22;15.97;79.43
71039;SHT30;58692;43.212;27.908;2023-05-17T00:47:48;16.01;79.36
71039;SHT30;58692;43.212;27.908;2023-05-17T00:50:13;15.98;79.55
71039;SHT30;58692;43.212;27.908;2023-05-17T00:52:39;15.93;79.56
71039;SHT30;58692;43.212;27.908;2023-05-17T00:55:05;15.97;79.45
71039;SHT30;58692;43.212;27.908;2023-05-17T00:57:30;15.96;79.41
71039;SHT30;58692;43.212;27.908;2023-05-17T00:59:56;15.94;79.44
71039;SHT30;58692;43.212;27.908;2023-05-17T01:02:23;15.93;79.13
71039;SHT30;58692;43.212;27.908;2023-05-17T01:04:49;15.96;79.07
71039;SHT30;58692;43.212;27.908;2023-05-17T01:07:15;15.98;78.78
71039;SHT30;58692;43.212;27.908;2023-05-17T01:09:42;15.96;78.66
71039;SHT30;58692;43.212;27.908;2023-05-17T01:15:02;16.03;78.13
71039;SHT30;58692;43.212;27.908;2023-05-17T01:20:30;16.01;78.09
71039;SHT30;58692;43.212;27.908;2023-05-17T01:28:33;15.97;77.61
71039;SHT30;58692;43.212;27.908;2023-05-17T01:31:01;15.94;77.42
71039;SHT30;58692;43.212;27.908;2023-05-17T01:33:28;16.00;77.27
71039;SHT30;58692;43.212;27.908;2023-05-17T01:35:53;16.03;76.70
71039;SHT30;58692;43.212;27.908;2023-05-17T01:38:19;16.10;75.44
71039;SHT30;58692;43.212;27.908;2023-05-17T01:41:04;16.13;75.37
71039;SHT30;58692;43.212;27.908;2023-05-17T01:46:11;16.17;73.90
71039;SHT30;58692;43.212;27.908;2023-05-17T01:48:42;16.24;74.11
71039;SHT30;58692;43.212;27.908;2023-05-17T01:51:10;16.25;74.14
71039;SHT30;58692;43.212;27.908;2023-05-17T01:53:47;16.22;73.78
71039;SHT30;58692;43.212;27.908;2023-05-17T01:56:16;16.24;73.52
71039;SHT30;58692;43.212;27.908;2023-05-17T01:58:46;16.25;73.04
71039;SHT30;58692;43.212;27.908;2023-05-17T02:01:14;16.24;72.90
71039;SHT30;58692;43.212;27.908;2023-05-17T02:03:40;16.27;72.08
71039;SHT30;58692;43.212;27.908;2023-05-17T02:06:06;16.29;71.57
71039;SHT30;58692;43.212;27.908;2023-05-17T02:08:32;16.29;71.06
71039;SHT30;58692;43.212;27.908;2023-05-17T02:10:57;16.34;71.01
71039;SHT30;58692;43.212;27.908;2023-05-17T02:13:23;16.41;70.98
71039;SHT30;58692;43.212;27.908;2023-05-17T02:15:48;16.41;70.89
71039;SHT30;58692;43.212;27.908;2023-05-17T02:18:14;16.44;70.51
71039;SHT30;58692;43.212;27.908;2023-05-17T02:20:39;16.49;70.53
71039;SHT30;58692;43.212;27.908;2023-05-17T02:23:05;16.44;69.84
71039;SHT30;58692;43.212;27.908;2023-05-17T02:25:30;16.52;69.92
71039;SHT30;58692;43.212;27.908;2023-05-17T02:27:56;16.52;69.94
71039;SHT30;58692;43.212;27.908;2023-05-17T02:30:21;16.55;69.60
71039;SHT30;58692;43.212;27.908;2023-05-17T02:32:47;16.56;69.14
71039;SHT30;58692;43.212;27.908;2023-05-17T02:35:13;16.58;69.32
71039;SHT30;58692;43.212;27.908;2023-05-17T02:37:38;16.61;68.88
71039;SHT30;58692;43.212;27.908;2023-05-17T02:40:06;16.62;68.82
71039;SHT30;58692;43.212;27.908;2023-05-17T02:42:34;16.65;68.88
71039;SHT30;58692;43.212;27.908;2023-05-17T02:45:00;16.61;68.66
71039;SHT30;58692;43.212;27.908;2023-05-17T02:47:25;16.61;69.03
71039;SHT30;58692;43.212;27.908;2023-05-17T02:49:51;16.61;68.89
71039;SHT30;58692;43.212;27.908;2023-05-17T02:52:16;16.66;68.87
71039;SHT30;58692;43.212;27.908;2023-05-17T02:54:42;16.64;69.21
71039;SHT30;58692;43.212;27.908;2023-05-17T02:57:08;16.65;69.60
71039;SHT30;58692;43.212;27.908;2023-05-17T02:59:34;16.61;69.98
71039;SHT30;58692;43.212;27.908;2023-05-17T03:02:00;16.55;70.38
71039;SHT30;58692;43.212;27.908;2023-05-17T03:04:25;16.56;70.52
71039;SHT30;58692;43.212;27.908;2023-05-17T03:06:51;16.58;70.43
71039;SHT30;58692;43.212;27.908;2023-05-17T03:09:16;16.56;70.74
71039;SHT30;58692;43.212;27.908;2023-05-17T03:11:42;16.52;70.63
71039;SHT30;58692;43.212;27.908;2023-05-17T03:14:07;16.56;69.89
71039;SHT30;58692;43.212;27.908;2023-05-17T03:16:33;16.58;69.65
71039;SHT30;58692;43.212;27.908;2023-05-17T03:18:59;16.68;69.06
71039;SHT30;58692;43.212;27.908;2023-05-17T03:21:24;16.68;68.58
71039;SHT30;58692;43.212;27.908;2023-05-17T03:23:50;16.75;67.62
71039;SHT30;58692;43.212;27.908;2023-05-17T03:26:15;16.76;68.25
71039;SHT30;58692;43.212;27.908;2023-05-17T03:28:43;16.80;68.55
71039;SHT30;58692;43.212;27.908;2023-05-17T03:31:08;16.82;68.49
71039;SHT30;58692;43.212;27.908;2023-05-17T03:33:34;16.79;68.71
71039;SHT30;58692;43.212;27.908;2023-05-17T03:35:59;16.79;68.76
71039;SHT30;58692;43.212;27.908;2023-05-17T03:38:25;16.82;68.94
71039;SHT30;58692;43.212;27.908;2023-05-17T03:40:51;16.80;69.11
71039;SHT30;58692;43.212;27.908;2023-05-17T03:43:17;16.72;69.59
71039;SHT30;58692;43.212;27.908;2023-05-17T03:45:43;16.68;69.64
71039;SHT30;58692;43.212;27.908;2023-05-17T03:48:08;16.68;69.10
71039;SHT30;58692;43.212;27.908;2023-05-17T03:50:34;16.69;69.14
71039;SHT30;58692;43.212;27.908;2023-05-17T03:52:59;16.80;68.27
71039;SHT30;58692;43.212;27.908;2023-05-17T03:55:25;16.78;68.34
71039;SHT30;58692;43.212;27.908;2023-05-17T03:57:50;16.80;68.00
71039;SHT30;58692;43.212;27.908;2023-05-17T04:00:16;16.73;69.20
71039;SHT30;58692;43.212;27.908;2023-05-17T04:03:06;16.62;70.48
71039;SHT30;58692;43.212;27.908;2023-05-17T04:05:31;16.66;70.91
71039;SHT30;58692;43.212;27.908;2023-05-17T04:07:57;16.64;71.29
71039;SHT30;58692;43.212;27.908;2023-05-17T04:10:22;16.64;71.65
71039;SHT30;58692;43.212;27.908;2023-05-17T04:12:48;16.59;71.45
71039;SHT30;58692;43.212;27.908;2023-05-17T04:15:14;16.58;71.31
71039;SHT30;58692;43.212;27.908;2023-05-17T04:17:40;16.59;71.18
71039;SHT30;58692;43.212;27.908;2023-05-17T04:20:06;16.62;71.44
71039;SHT30;58692;43.212;27.908;2023-05-17T04:22:32;16.61;71.63
71039;SHT30;58692;43.212;27.908;2023-05-17T04:24:57;16.69;71.13
71039;SHT30;58692;43.212;27.908;2023-05-17T04:27:23;16.65;70.86
71039;SHT30;58692;43.212;27.908;2023-05-17T04:29:48;16.71;70.66
71039;SHT30;58692;43.212;27.908;2023-05-17T04:32:14;16.76;69.87
71039;SHT30;58692;43.212;27.908;2023-05-17T04:34:40;16.85;69.63
71039;SHT30;58692;43.212;27.908;2023-05-17T04:37:07;16.92;69.74
71039;SHT30;58692;43.212;27.908;2023-05-17T04:39:32;16.99;69.64
71039;SHT30;58692;43.212;27.908;2023-05-17T04:41:58;16.96;69.95
71039;SHT30;58692;43.212;27.908;2023-05-17T04:44:23;16.96;70.74
71039;SHT30;58692;43.212;27.908;2023-05-17T04:46:49;17.00;71.80
71039;SHT30;58692;43.212;27.908;2023-05-17T04:49:15;17.00;71.98
71039;SHT30;58692;43.212;27.908;2023-05-17T04:51:40;17.03;71.57
71039;SHT30;58692;43.212;27.908;2023-05-17T04:54:06;16.96;71.96
71039;SHT30;58692;43.212;27.908;2023-05-17T04:56:34;16.93;71.57
71039;SHT30;58692;43.212;27.908;2023-05-17T04:59:00;16.83;71.48
71039;SHT30;58692;43.212;27.908;2023-05-17T05:01:26;16.83;71.44
71039;SHT30;58692;43.212;27.908;2023-05-17T05:03:55;16.82;71.24
71039;SHT30;58692;43.212;27.908;2023-05-17T05:06:21;16.83;71.05
71039;SHT30;58692;43.212;27.908;2023-05-17T05:08:47;16.86;70.99
71039;SHT30;58692;43.212;27.908;2023-05-17T05:11:12;16.92;70.83
71039;SHT30;58692;43.212;27.908;2023-05-17T05:13:38;16.90;70.71
71039;SHT30;58692;43.212;27.908;2023-05-17T05:16:06;16.96;70.65
71039;SHT30;58692;43.212;27.908;2023-05-17T05:18:32;16.98;70.57
71039;SHT30;58692;43.212;27.908;2023-05-17T05:20:57;17.02;70.96
71039;SHT30;58692;43.212;27.908;2023-05-17T05:23:23;17.03;70.94
71039;SHT30;58692;43.212;27.908;2023-05-17T05:25:49;16.93;71.05
71039;SHT30;58692;43.212;27.908;2023-05-17T05:28:14;16.95;70.53
71039;SHT30;58692;43.212;27.908;2023-05-17T05:30:40;16.92;70.48
71039;SHT30;58692;43.212;27.908;2023-05-17T05:33:06;16.92;70.71
71039;SHT30;58692;43.212;27.908;2023-05-17T05:35:31;16.98;70.74
71039;SHT30;58692;43.212;27.908;2023-05-17T05:37:57;17.00;70.31
71039;SHT30;58692;43.212;27.908;2023-05-17T05:40:23;17.10;69.77
71039;SHT30;58692;43.212;27.908;2023-05-17T05:42:49;17.19;69.72
71039;SHT30;58692;43.212;27.908;2023-05-17T05:45:14;17.30;69.46
71039;SHT30;58692;43.212;27.908;2023-05-17T05:47:40;17.29;68.81
71039;SHT30;58692;43.212;27.908;2023-05-17T05:50:06;17.34;68.61
71039;SHT30;58692;43.212;27.908;2023-05-17T05:52:32;17.46;68.41
71039;SHT30;58692;43.212;27.908;2023-05-17T05:54:58;17.43;67.67
71039;SHT30;58692;43.212;27.908;2023-05-17T05:57:24;17.53;67.11
71039;SHT30;58692;43.212;27.908;2023-05-17T05:59:49;17.53;67.45
71039;SHT30;58692;43.212;27.908;2023-05-17T06:02:15;17.61;67.52
71039;SHT30;58692;43.212;27.908;2023-05-17T06:04:42;17.70;67.05
71039;SHT30;58692;43.212;27.908;2023-05-17T06:07:07;17.80;66.48
71039;SHT30;58692;43.212;27.908;2023-05-17T06:09:35;17.70;65.73
71039;SHT30;58692;43.212;27.908;2023-05-17T06:12:01;17.77;65.48
71039;SHT30;58692;43.212;27.908;2023-05-17T06:14:26;17.74;65.75
71039;SHT30;58692;43.212;27.908;2023-05-17T06:16:52;17.73;66.62
71039;SHT30;58692;43.212;27.908;2023-05-17T06:19:17;17.73;66.20
71039;SHT30;58692;43.212;27.908;2023-05-17T06:21:44;17.63;65.91
71039;SHT30;58692;43.212;27.908;2023-05-17T06:24:09;17.69;66.31
71039;SHT30;58692;43.212;27.908;2023-05-17T06:26:35;17.77;66.19
71039;SHT30;58692;43.212;27.908;2023-05-17T06:29:00;17.78;66.23
71039;SHT30;58692;43.212;27.908;2023-05-17T06:31:26;17.71;65.47
71039;SHT30;58692;43.212;27.908;2023-05-17T06:33:51;17.77;64.99
71039;SHT30;58692;43.212;27.908;2023-05-17T06:36:17;17.87;64.85
71039;SHT30;58692;43.212;27.908;2023-05-17T06:38:43;17.82;63.26
71039;SHT30;58692;43.212;27.908;2023-05-17T06:41:08;17.84;63.55
71039;SHT30;58692;43.212;27.908;2023-05-17T06:43:34;17.92;62.87
71039;SHT30;58692;43.212;27.908;2023-05-17T06:45:59;17.84;63.59
71039;SHT30;58692;43.212;27.908;2023-05-17T06:48:25;17.87;63.62
71039;SHT30;58692;43.212;27.908;2023-05-17T06:50:51;17.81;63.47
71039;SHT30;58692;43.212;27.908;2023-05-17T06:53:16;17.91;63.38
71039;SHT30;58692;43.212;27.908;2023-05-17T06:55:42;17.92;63.43
71039;SHT30;58692;43.212;27.908;2023-05-17T06:58:08;17.94;61.91
71039;SHT30;58692;43.212;27.908;2023-05-17T07:00:33;17.90;61.32
71039;SHT30;58692;43.212;27.908;2023-05-17T07:02:59;17.92;61.29
71039;SHT30;58692;43.212;27.908;2023-05-17T07:05:34;17.98;60.96
71039;SHT30;58692;43.212;27.908;2023-05-17T07:08:00;18.12;60.34
71039;SHT30;58692;43.212;27.908;2023-05-17T07:10:25;18.25;59.57
71039;SHT30;58692;43.212;27.908;2023-05-17T07:12:51;18.32;59.63
71039;SHT30;58692;43.212;27.908;2023-05-17T07:15:17;18.33;59.08
71039;SHT30;58692;43.212;27.908;2023-05-17T07:17:43;18.45;58.15
71039;SHT30;58692;43.212;27.908;2023-05-17T07:20:09;18.55;58.46
71039;SHT30;58692;43.212;27.908;2023-05-17T07:22:36;18.53;59.14
71039;SHT30;58692;43.212;27.908;2023-05-17T07:25:02;18.80;58.60
71039;SHT30;58692;43.212;27.908;2023-05-17T07:27:28;18.83;58.43
71039;SHT30;58692;43.212;27.908;2023-05-17T07:29:53;19.02;58.22
71039;SHT30;58692;43.212;27.908;2023-05-17T07:32:19;19.10;57.88
71039;SHT30;58692;43.212;27.908;2023-05-17T07:34:44;19.14;57.83
71039;SHT30;58692;43.212;27.908;2023-05-17T07:37:10;19.23;57.40
71039;SHT30;58692;43.212;27.908;2023-05-17T07:39:36;19.24;57.71
71039;SHT30;58692;43.212;27.908;2023-05-17T07:42:01;19.37;57.03
71039;SHT30;58692;43.212;27.908;2023-05-17T07:44:27;19.35;57.33
71039;SHT30;58692;43.212;27.908;2023-05-17T07:46:52;19.04;57.40
71039;SHT30;58692;43.212;27.908;2023-05-17T07:49:18;19.18;57.72
71039;SHT30;58692;43.212;27.908;2023-05-17T07:51:43;19.31;57.69
71039;SHT30;58692;43.212;27.908;2023-05-17T07:54:20;19.23;58.18
71039;SHT30;58692;43.212;27.908;2023-05-17T07:56:46;19.24;57.27
71039;SHT30;58692;43.212;27.908;2023-05-17T07:59:12;19.26;57.19
71039;SHT30;58692;43.212;27.908;2023-05-17T08:01:37;19.16;57.22
71039;SHT30;58692;43.212;27.908;2023-05-17T08:04:03;19.32;57.67
71039;SHT30;58692;43.212;27.908;2023-05-17T08:06:29;19.08;57.97
71039;SHT30;58692;43.212;27.908;2023-05-17T08:08:57;19.00;58.55
71039;SHT30;58692;43.212;27.908;2023-05-17T08:11:22;19.03;59.14
71039;SHT30;58692;43.212;27.908;2023-05-17T08:13:50;19.20;58.69
71039;SHT30;58692;43.212;27.908;2023-05-17T08:16:16;19.07;59.35
71039;SHT30;58692;43.212;27.908;2023-05-17T08:18:41;19.08;59.99
71039;SHT30;58692;43.212;27.908;2023-05-17T08:21:07;18.93;60.65
71039;SHT30;58692;43.212;27.908;2023-05-17T08:23:33;18.96;60.33
71039;SHT30;58692;43.212;27.908;2023-05-17T08:25:58;18.89;59.45
71039;SHT30;58692;43.212;27.908;2023-05-17T08:28:24;18.87;60.69
71039;SHT30;58692;43.212;27.908;2023-05-17T08:30:49;18.86;60.54
71039;SHT30;58692;43.212;27.908;2023-05-17T08:33:15;18.97;60.63
71039;SHT30;58692;43.212;27.908;2023-05-17T08:35:40;18.93;60.76
71039;SHT30;58692;43.212;27.908;2023-05-17T08:38:06;18.87;61.38
71039;SHT30;58692;43.212;27.908;2023-05-17T08:40:34;18.80;62.46
71039;SHT30;58692;43.212;27.908;2023-05-17T08:43:01;18.82;62.13
71039;SHT30;58692;43.212;27.908;2023-05-17T08:45:27;18.89;62.16
71039;SHT30;58692;43.212;27.908;2023-05-17T08:47:56;18.96;61.88
71039;SHT30;58692;43.212;27.908;2023-05-17T08:50:22;18.93;62.51
71039;SHT30;58692;43.212;27.908;2023-05-17T08:52:48;18.97;62.66
71039;SHT30;58692;43.212;27.908;2023-05-17T08:55:14;19.03;62.16
71039;SHT30;58692;43.212;27.908;2023-05-17T08:57:40;19.03;62.00
71039;SHT30;58692;43.212;27.908;2023-05-17T09:00:07;18.99;62.34
71039;SHT30;58692;43.212;27.908;2023-05-17T09:02:37;18.90;62.71
71039;SHT30;58692;43.212;27.908;2023-05-17T09:05:04;18.99;62.97
71039;SHT30;58692;43.212;27.908;2023-05-17T09:07:31;18.82;63.73
71039;SHT30;58692;43.212;27.908;2023-05-17T09:10:34;18.77;64.16
71039;SHT30;58692;43.212;27.908;2023-05-17T09:13:00;18.83;64.28
71039;SHT30;58692;43.212;27.908;2023-05-17T09:15:26;18.77;64.66
71039;SHT30;58692;43.212;27.908;2023-05-17T09:17:54;18.65;65.33
71039;SHT30;58692;43.212;27.908;2023-05-17T09:20:24;18.70;65.12
71039;SHT30;58692;43.212;27.908;2023-05-17T09:22:50;18.53;65.15
71039;SHT30;58692;43.212;27.908;2023-05-17T09:25:22;18.59;65.59
71039;SHT30;58692;43.212;27.908;2023-05-17T09:27:52;18.56;65.58
71039;SHT30;58692;43.212;27.908;2023-05-17T09:30:18;18.60;65.14
71039;SHT30;58692;43.212;27.908;2023-05-17T09:32:44;18.60;65.22
71039;SHT30;58692;43.212;27.908;2023-05-17T09:35:13;18.55;65.34
71039;SHT30;58692;43.212;27.908;2023-05-17T09:37:41;18.51;65.57
71039;SHT30;58692;43.212;27.908;2023-05-17T09:40:09;18.36;66.13
71039;SHT30;58692;43.212;27.908;2023-05-17T09:42:35;18.33;66.56
71039;SHT30;58692;43.212;27.908;2023-05-17T09:45:03;18.29;66.78
71039;SHT30;58692;43.212;27.908;2023-05-17T09:47:29;18.35;66.89
71039;SHT30;58692;43.212;27.908;2023-05-17T09:49:56;18.32;66.99
71039;SHT30;58692;43.212;27.908;2023-05-17T09:52:34;18.38;66.79
71039;SHT30;58692;43.212;27.908;2023-05-17T09:55:01;18.35;66.44
71039;SHT30;58692;43.212;27.908;2023-05-17T09:57:35;18.42;66.38
71039;SHT30;58692;43.212;27.908;2023-05-17T10:00:03;18.52;66.02
71039;SHT30;58692;43.212;27.908;2023-05-17T10:02:38;18.46;66.20
71039;SHT30;58692;43.212;27.908;2023-05-17T10:05:08;18.48;65.82
71039;SHT30;58692;43.212;27.908;2023-05-17T10:07:36;18.72;65.59
71039;SHT30;58692;43.212;27.908;2023-05-17T10:10:02;18.74;65.18
71039;SHT30;58692;43.212;27.908;2023-05-17T10:12:34;18.74;65.11
71039;SHT30;58692;43.212;27.908;2023-05-17T10:15:04;18.97;64.88
71039;SHT30;58692;43.212;27.908;2023-05-17T10:17:30;19.06;63.92
71039;SHT30;58692;43.212;27.908;2023-05-17T10:20:00;19.14;63.27
71039;SHT30;58692;43.212;27.908;2023-05-17T10:22:31;19.24;62.82
71039;SHT30;58692;43.212;27.908;2023-05-17T10:24:58;19.14;62.78
71039;SHT30;58692;43.212;27.908;2023-05-17T10:27:24;19.16;62.49
71039;SHT30;58692;43.212;27.908;2023-05-17T10:29:52;19.17;62.08
71039;SHT30;58692;43.212;27.908;2023-05-17T10:32:20;19.26;61.71
71039;SHT30;58692;43.212;27.908;2023-05-17T10:34:52;19.35;61.39
71039;SHT30;58692;43.212;27.908;2023-05-17T10:37:27;19.44;60.81
71039;SHT30;58692;43.212;27.908;2023-05-17T10:39:55;19.44;59.51
71039;SHT30;58692;43.212;27.908;2023-05-17T10:42:30;19.43;59.32
71039;SHT30;58692;43.212;27.908;2023-05-17T10:44:56;19.24;60.00
71039;SHT30;58692;43.212;27.908;2023-05-17T10:47:30;19.28;60.56
71039;SHT30;58692;43.212;27.908;2023-05-17T10:49:56;19.32;59.75
71039;SHT30;58692;43.212;27.908;2023-05-17T10:52:22;19.45;59.35
71039;SHT30;58692;43.212;27.908;2023-05-17T10:54:56;19.45;58.24
71039;SHT30;58692;43.212;27.908;2023-05-17T10:57:36;19.53;58.46
71039;SHT30;58692;43.212;27.908;2023-05-17T11:00:06;19.67;57.32
71039;SHT30;58692;43.212;27.908;2023-05-17T11:03:09;19.85;57.70
71039;SHT30;58692;43.212;27.908;2023-05-17T11:06:34;19.81;57.50
71039;SHT30;58692;43.212;27.908;2023-05-17T11:09:14;19.86;58.66
71039;SHT30;58692;43.212;27.908;2023-05-17T11:14:53;19.69;59.96
71039;SHT30;58692;43.212;27.908;2023-05-17T11:21:30;19.47;63.45
71039;SHT30;58692;43.212;27.908;2023-05-17T11:24:05;19.53;63.54
71039;SHT30;58692;43.212;27.908;2023-05-17T11:26:35;19.37;63.90
71039;SHT30;58692;43.212;27.908;2023-05-17T11:29:07;19.35;64.17
71039;SHT30;58692;43.212;27.908;2023-05-17T11:31:43;19.43;63.97
71039;SHT30;58692;43.212;27.908;2023-05-17T11:34:10;19.64;63.73
71039;SHT30;58692;43.212;27.908;2023-05-17T11:36:51;19.68;63.75
71039;SHT30;58692;43.212;27.908;2023-05-17T11:39:22;19.68;64.03
71039;SHT30;58692;43.212;27.908;2023-05-17T11:41:50;19.85;63.83
71039;SHT30;58692;43.212;27.908;2023-05-17T11:44:29;19.79;64.55
71039;SHT30;58692;43.212;27.908;2023-05-17T11:47:06;19.68;65.36
71039;SHT30;58692;43.212;27.908;2023-05-17T11:49:37;19.72;65.22
71039;SHT30;58692;43.212;27.908;2023-05-17T11:52:05;19.54;66.20
71039;SHT30;58692;43.212;27.908;2023-05-17T11:54:32;19.65;66.36
71039;SHT30;58692;43.212;27.908;2023-05-17T11:56:59;19.57;66.46
71039;SHT30;58692;43.212;27.908;2023-05-17T11:59:27;19.74;66.09
71039;SHT30;58692;43.212;27.908;2023-05-17T12:01:52;19.62;67.48
71039;SHT30;58692;43.212;27.908;2023-05-17T12:04:26;19.48;68.49
71039;SHT30;58692;43.212;27.908;2023-05-17T12:06:52;19.26;69.89
71039;SHT30;58692;43.212;27.908;2023-05-17T12:09:22;19.06;69.88
71039;SHT30;58692;43.212;27.908;2023-05-17T12:11:50;19.06;70.69
71039;SHT30;58692;43.212;27.908;2023-05-17T12:14:16;19.03;71.43
71039;SHT30;58692;43.212;27.908;2023-05-17T12:16:44;18.93;71.18
71039;SHT30;58692;43.212;27.908;2023-05-17T12:19:19;19.03;70.92
71039;SHT30;58692;43.212;27.908;2023-05-17T12:21:49;18.96;71.22
71039;SHT30;58692;43.212;27.908;2023-05-17T12:24:17;18.82;71.93
71039;SHT30;58692;43.212;27.908;2023-05-17T12:26:44;18.65;72.23
71039;SHT30;58692;43.212;27.908;2023-05-17T12:29:10;18.55;73.28
71039;SHT30;58692;43.212;27.908;2023-05-17T12:31:39;18.46;73.98
71039;SHT30;58692;43.212;27.908;2023-05-17T12:34:06;18.62;73.89
71039;SHT30;58692;43.212;27.908;2023-05-17T12:36:33;18.73;73.46
71039;SHT30;58692;43.212;27.908;2023-05-17T12:39:00;18.59;74.15
71039;SHT30;58692;43.212;27.908;2023-05-17T12:41:26;18.57;74.14
71039;SHT30;58692;43.212;27.908;2023-05-17T12:43:53;18.59;74.68
71039;SHT30;58692;43.212;27.908;2023-05-17T12:46:21;18.66;74.31
71039;SHT30;58692;43.212;27.908;2023-05-17T12:48:51;18.52;75.37
71039;SHT30;58692;43.212;27.908;2023-05-17T12:51:19;18.51;75.22
71039;SHT30;58692;43.212;27.908;2023-05-17T12:53:56;18.56;75.99
71039;SHT30;58692;43.212;27.908;2023-05-17T12:56:31;18.46;76.61
71039;SHT30;58692;43.212;27.908;2023-05-17T12:59:15;18.21;78.24
71039;SHT30;58692;43.212;27.908;2023-05-17T13:04:34;18.18;78.97
71039;SHT30;58692;43.212;27.908;2023-05-17T13:07:19;18.31;78.46
71039;SHT30;58692;43.212;27.908;2023-05-17T13:09:46;18.35;78.13
71039;SHT30;58692;43.212;27.908;2023-05-17T13:12:20;18.41;77.75
71039;SHT30;58692;43.212;27.908;2023-05-17T13:14:48;18.57;76.73
71039;SHT30;58692;43.212;27.908;2023-05-17T13:17:18;18.66;75.58
71039;SHT30;58692;43.212;27.908;2023-05-17T13:19:48;18.82;74.35
71039;SHT30;58692;43.212;27.908;2023-05-17T13:22:14;18.89;73.03
71039;SHT30;58692;43.212;27.908;2023-05-17T13:24:41;19.03;72.64
71039;SHT30;58692;43.212;27.908;2023-05-17T13:27:07;18.89;72.63
71039;SHT30;58692;43.212;27.908;2023-05-17T13:29:35;18.96;71.47
71039;SHT30;58692;43.212;27.908;2023-05-17T13:32:01;18.84;72.36
71039;SHT30;58692;43.212;27.908;2023-05-17T13:34:27;18.77;72.69
71039;SHT30;58692;43.212;27.908;2023-05-17T13:36:52;18.74;71.93
71039;SHT30;58692;43.212;27.908;2023-05-17T13:39:21;18.86;71.86
71039;SHT30;58692;43.212;27.908;2023-05-17T13:41:46;18.84;71.59
71039;SHT30;58692;43.212;27.908;2023-05-17T13:44:12;18.96;71.32
71039;SHT30;58692;43.212;27.908;2023-05-17T13:46:38;19.00;71.54
71039;SHT30;58692;43.212;27.908;2023-05-17T13:49:05;19.10;71.03
71039;SHT30;58692;43.212;27.908;2023-05-17T13:51:33;18.86;71.33
71039;SHT30;58692;43.212;27.908;2023-05-17T13:53:59;18.89;70.98
71039;SHT30;58692;43.212;27.908;2023-05-17T13:56:28;18.86;70.81
71039;SHT30;58692;43.212;27.908;2023-05-17T13:58:58;18.86;69.65
71039;SHT30;58692;43.212;27.908;2023-05-17T14:01:24;18.99;69.40
71039;SHT30;58692;43.212;27.908;2023-05-17T14:03:49;18.99;69.47
71039;SHT30;58692;43.212;27.908;2023-05-17T14:06:15;18.93;69.64
71039;SHT30;58692;43.212;27.908;2023-05-17T14:08:44;18.94;69.76
71039;SHT30;58692;43.212;27.908;2023-05-17T14:11:10;18.74;69.37
71039;SHT30;58692;43.212;27.908;2023-05-17T14:13:41;18.79;69.45
71039;SHT30;58692;43.212;27.908;2023-05-17T14:16:10;18.97;69.33
71039;SHT30;58692;43.212;27.908;2023-05-17T14:18:47;18.80;69.50
71039;SHT30;58692;43.212;27.908;2023-05-17T14:21:15;18.83;69.72
71039;SHT30;58692;43.212;27.908;2023-05-17T14:23:40;18.73;70.15
71039;SHT30;58692;43.212;27.908;2023-05-17T14:26:06;18.80;69.78
71039;SHT30;58692;43.212;27.908;2023-05-17T14:28:35;18.77;70.27
71039;SHT30;58692;43.212;27.908;2023-05-17T14:31:03;18.74;70.35
71039;SHT30;58692;43.212;27.908;2023-05-17T14:33:28;18.76;70.27
71039;SHT30;58692;43.212;27.908;2023-05-17T14:36:04;18.72;70.31
71039;SHT30;58692;43.212;27.908;2023-05-17T14:38:32;18.73;70.30
71039;SHT30;58692;43.212;27.908;2023-05-17T14:41:00;18.63;70.81
71039;SHT30;58692;43.212;27.908;2023-05-17T14:43:27;18.59;70.91
71039;SHT30;58692;43.212;27.908;2023-05-17T14:45:52;18.67;71.03
71039;SHT30;58692;43.212;27.908;2023-05-17T14:48:18;18.70;71.01
71039;SHT30;58692;43.212;27.908;2023-05-17T14:50:44;18.59;71.19
71039;SHT30;58692;43.212;27.908;2023-05-17T14:53:10;18.66;70.74
71039;SHT30;58692;43.212;27.908;2023-05-17T14:55:37;18.60;70.65
71039;SHT30;58692;43.212;27.908;2023-05-17T14:58:02;18.67;70.62
71039;SHT30;58692;43.212;27.908;2023-05-17T15:00:28;18.67;70.48
71039;SHT30;58692;43.212;27.908;2023-05-17T15:02:56;18.67;70.20
71039;SHT30;58692;43.212;27.908;2023-05-17T15:05:25;18.73;70.55
71039;SHT30;58692;43.212;27.908;2023-05-17T15:07:54;18.69;70.07
71039;SHT30;58692;43.212;27.908;2023-05-17T15:10:22;18.65;70.16
71039;SHT30;58692;43.212;27.908;2023-05-17T15:12:48;18.56;70.97
71039;SHT30;58692;43.212;27.908;2023-05-17T15:15:14;18.49;71.55
71039;SHT30;58692;43.212;27.908;2023-05-17T15:17:39;18.49;71.62
71039;SHT30;58692;43.212;27.908;2023-05-17T15:20:06;18.42;72.05
71039;SHT30;58692;43.212;27.908;2023-05-17T15:22:35;18.49;72.40
71039;SHT30;58692;43.212;27.908;2023-05-17T15:25:00;18.41;72.67
71039;SHT30;58692;43.212;27.908;2023-05-17T15:27:26;18.33;73.15
71039;SHT30;58692;43.212;27.908;2023-05-17T15:29:58;18.18;73.71
71039;SHT30;58692;43.212;27.908;2023-05-17T15:36:26;18.08;73.94
71039;SHT30;58692;43.212;27.908;2023-05-17T15:38:51;18.02;74.45
71039;SHT30;58692;43.212;27.908;2023-05-17T15:41:19;17.92;74.91
71039;SHT30;58692;43.212;27.908;2023-05-17T15:43:59;17.85;75.40
71039;SHT30;58692;43.212;27.908;2023-05-17T15:46:30;17.80;75.60